Skip Navigation Linkwww.weather.gov 
NOAA logo - Select to go to the NOAA homepage National Weather Service
 Headquarters Office   NWS logo
NWS Office of the Chief Information Officer/Telecommunication Operations Center
 
   

Current Weather Conditions:
Kassala, Sudan

(HSKA) 15-28N 036-24E 500M

Conditions at

2017.02.10 0500 UTC
Wind Variable at 3 MPH (3 KT)
Visibility greater than 7 mile(s)
ob HSKA 100500Z 1006/1112 VRB03KT CAVOK

24 Hour Summary

Time
EST (UTC)
Temperature
F (C)
Dew Point
F (C)
Pressure
Inches (hPa)
Wind
MPH
Weather
Latest Midnight (5) Feb 10 Variable 3
11 PM (4) No Data
10 PM (3) No Data
9 PM (2) No Data
8 PM (1) No Data
7 PM (0) No Data
6 PM (23) No Data
5 PM (22) No Data
4 PM (21) No Data
3 PM (20) No Data
2 PM (19) No Data
1 PM (18) No Data
Noon (17) No Data
11 AM (16) No Data
10 AM (15) No Data
9 AM (14) No Data
8 AM (13) No Data
7 AM (12) No Data
6 AM (11) No Data
5 AM (10) No Data
4 AM (9) No Data
3 AM (8) No Data
2 AM (7) No Data
Oldest 1 AM (6) No Data
Time
EST (UTC)
Temperature
F(C)
Dew Point
F(C)
Pressure
Inches(hPa)
Wind
(MPH)
Weather

The information presented here is taken from products produced by the U.S. National Weather Service and other national and international agencies




US Dept of Commerce
National Oceanic and Atmospheric Administration
National Weather Service
1325 East West Highway
Silver Spring, MD 20910
Page Author: NWS Internet Services Team
Disclaimer
Feedback
Privacy Notice
Credits